INFORMAÇÕES DO AERODROMO
Icao Aerodromo LIMF Nome do Aerodromo Turin Airport Cidade Torino
Código GPS LIMF Elevação Média 989 ft Tipo de Aerodromo Aeroporto Grande Porte

INFORMAÇÃO DE PISTA
Pista 18 Comprimento da Pista 10827 ft Largura da Pista 197 ft
Elevação da Pista 981 ft Distância de Area de Escape da Pista 2378 ft Orientação da Pista 183
Pista 36 Comprimento da Pista 10827 ft Largura da Pista 197 ft
Elevação da Pista 933 ft Distância de Area de Escape da Pista 1148 ft Orientação da Pista 3

FREQUÊNCIAS DO AERODROMO
Tipo APP Nome APP Frequência 23.44 MHZ
Tipo APP Nome APP Frequência 129.275 MHZ
Tipo ATIS Nome ATIS Frequência 120.475 MHZ
Tipo GND Nome GND Frequência 121.7 MHZ
Tipo TWR Nome TWR Frequência 118.5 MHZ

INFORMAÇÕES DE NAVEGAÇÃO PRÓXIMO AO AERODROMO
Tipo TACAN Nome Caselle Frequência 109500 KHZ
Tipo NDB Nome Caselle Frequência 357 KHZ
Tipo VOR-DME Nome Caselle Frequência 116750 KHZ
Tipo VOR-DME Nome Torino Frequência 114500 KHZ
Tipo NDB Nome Torino Frequência 393 KHZ

Informações de Meteorologia(METAR atual)
METAR DE LIMF
ADDS - METARS form results

(1745 UTC 22 August 2019)
Data provider http://aviationweather.gov/metar/data/
 
METAR text: LIMF 221720Z 25003KT 210V280 CAVOK 24/17 Q1021
Conditions at: LIMF (TORINO/CASELLE , IT) observed 1720 UTC 22 August 2019
Temperature: 24.0°C (75°F)
Dewpoint: 17.0°C (63°F) [RH = 65%]
Pressure (altimeter): 30.15 inches Hg (1021.0 mb)
Winds: from the WSW (250 degrees) at 3 MPH (3 knots; 1.5 m/s)
Visibility: 6 or more miles (10+ km)
Ceiling: ceiling and visibility are OK
Clouds: unknown
Weather: no significant weather observed at this time

METAR text: LIMF 221650Z VRB02KT CAVOK 25/17 Q1021
Conditions at: LIMF (TORINO/CASELLE , IT) observed 1650 UTC 22 August 2019
Temperature: 25.0°C (77°F)
Dewpoint: 17.0°C (63°F) [RH = 61%]
Pressure (altimeter): 30.15 inches Hg (1021.0 mb)
Winds: variable direction winds at 2 MPH (2 knots; 1.0 m/s)
Visibility: 6 or more miles (10+ km)
Ceiling: ceiling and visibility are OK
Clouds: unknown
Weather: no significant weather observed at this time

Forecast for: LIMF (TORINO/CASELLE , IT)
Text: TAF LIMF 221700Z 2218/2318 VRB05KT CAVOK
Forecast period: 1800 UTC 22 August 2019 to 1800 UTC 23 August 2019
Forecast type: FROM: standard forecast or significant change
Winds: variable direction winds at 6 MPH (5 knots; 2.6 m/s)
Visibility: 6 or more miles 10+ km)
Ceiling: unknown
Clouds: missing
Weather: NSW  (no significant weather)
Text: TEMPO 2310/2317 TSRA
Forecast period: 1000 to 1700 UTC 23 August 2019
Forecast type: TEMPORARY: The following changes expected for less than half the time period
Visibility: missing
Ceiling: unknown
Clouds: missing
Weather: TSRA  (rain associated with thunderstorm(s))

MAPA DO AERODROMO


Desenvolvido por Virtual Airlines Manager




Modificado por Servidor Brasil Amigos